Time;durP1;ratioP1;P1;durP2;ratioP2;P2;SDS_P1;SDS_P2;PMS_P1;PMS_P2;Temp;Humidity;BMP_temperature;BMP_pressure;BME280_temperature;BME280_humidity;BME280_pressure;Samples;Min_cycle;Max_cycle;Signal;HPM_P1;HPM_P2
2022/03/29 00:00:27;;;;;;;30.10;20.98;;;7.30;99.90;;;;;;6251313;22;20094;-88
2022/03/29 00:02:53;;;;;;;34.30;21.17;;;7.30;99.90;;;;;;6251586;22;20047;-88
2022/03/29 00:05:19;;;;;;;30.80;21.57;;;7.20;99.90;;;;;;6276880;22;20038;-88
2022/03/29 00:07:44;;;;;;;30.40;20.50;;;7.20;99.90;;;;;;6251615;22;20094;-90
2022/03/29 00:10:11;;;;;;;34.17;21.10;;;7.30;99.90;;;;;;6251509;22;20019;-89
2022/03/29 00:12:37;;;;;;;31.80;20.58;;;7.20;99.90;;;;;;6251402;22;20022;-89
2022/03/29 00:15:05;;;;;;;31.90;20.20;;;7.20;99.90;;;;;;6251623;22;20011;-90
2022/03/29 00:17:47;;;;;;;33.80;20.73;;;7.20;99.90;;;;;;6252252;22;20099;-90
2022/03/29 00:20:14;;;;;;;33.45;19.98;;;7.20;99.90;;;;;;6252078;22;20012;-90
2022/03/29 00:22:39;;;;;;;33.22;20.38;;;7.20;99.90;;;;;;6252012;22;20445;-90
2022/03/29 00:25:06;;;;;;;34.53;20.63;;;7.20;99.90;;;;;;6252138;22;20062;-91
2022/03/29 00:27:34;;;;;;;27.58;19.00;;;7.20;99.90;;;;;;6251995;22;20016;-91
2022/03/29 00:30:00;;;;;;;30.75;19.75;;;7.10;99.90;;;;;;6251920;22;20019;-90
2022/03/29 00:32:25;;;;;;;34.47;20.73;;;7.10;99.90;;;;;;6251957;22;20023;-90
2022/03/29 00:34:51;;;;;;;31.23;20.53;;;7.10;99.90;;;;;;6252087;22;20083;-91
2022/03/29 00:37:17;;;;;;;33.43;20.40;;;7.10;99.90;;;;;;6251905;22;20014;-90
2022/03/29 00:39:43;;;;;;;34.97;21.30;;;7.10;99.90;;;;;;6252229;22;20022;-89
2022/03/29 00:42:08;;;;;;;29.73;20.67;;;7.10;99.90;;;;;;6251931;22;20008;-90
2022/03/29 00:44:38;;;;;;;34.50;22.03;;;7.10;99.90;;;;;;6251701;22;20016;-90
2022/03/29 00:47:04;;;;;;;32.42;20.67;;;7.10;99.90;;;;;;6251565;22;20038;-91
2022/03/29 00:49:30;;;;;;;35.85;22.33;;;7.10;99.90;;;;;;6251868;22;20027;-91
2022/03/29 00:51:59;;;;;;;35.15;20.55;;;7.10;99.90;;;;;;6251580;22;20452;-91
2022/03/29 00:54:26;;;;;;;31.75;21.60;;;7.10;99.90;;;;;;6251742;22;20020;-91
2022/03/29 00:56:52;;;;;;;33.95;21.15;;;7.10;99.90;;;;;;6251654;22;20019;-90
2022/03/29 00:59:18;;;;;;;33.13;21.40;;;7.20;99.90;;;;;;6251829;22;20007;-90
2022/03/29 01:06:59;;;;;;;32.63;20.63;;;7.10;99.90;;;;;;6296264;22;20509;-91
2022/03/29 01:09:26;;;;;;;34.03;20.80;;;7.10;99.90;;;;;;6256565;22;20027;-90
2022/03/29 01:11:52;;;;;;;31.83;22.05;;;7.20;99.90;;;;;;6256435;22;20475;-91
2022/03/29 01:14:20;;;;;;;34.03;22.20;;;7.10;99.90;;;;;;6256529;22;20011;-90
2022/03/29 01:19:57;;;;;;;35.17;20.90;;;7.00;99.90;;;;;;6282678;22;20456;-91
2022/03/29 01:22:23;;;;;;;35.63;21.40;;;7.10;99.90;;;;;;6256623;22;20011;-90
2022/03/29 01:24:51;;;;;;;33.85;21.75;;;7.00;99.90;;;;;;6256548;22;20011;-89
2022/03/29 01:27:17;;;;;;;37.13;21.95;;;7.00;99.90;;;;;;6256076;22;20015;-88
2022/03/29 01:29:43;;;;;;;35.97;21.00;;;7.00;99.90;;;;;;6255958;22;20017;-88
2022/03/29 01:32:11;;;;;;;33.55;22.15;;;7.10;99.90;;;;;;6255886;22;20015;-88
2022/03/29 01:34:39;;;;;;;35.10;21.83;;;7.10;99.90;;;;;;6256189;22;20011;-90
2022/03/29 01:37:05;;;;;;;34.60;21.58;;;7.00;99.90;;;;;;6256316;22;20042;-89
2022/03/29 01:39:35;;;;;;;34.60;21.80;;;7.00;99.90;;;;;;6256127;22;20073;-90
2022/03/29 01:42:01;;;;;;;33.10;20.60;;;7.10;99.90;;;;;;6256380;22;20015;-90
2022/03/29 01:44:27;;;;;;;33.90;20.00;;;7.10;99.90;;;;;;6256305;22;20317;-90
2022/03/29 01:46:53;;;;;;;35.05;21.10;;;7.00;99.90;;;;;;6255921;22;20280;-89
2022/03/29 01:49:19;;;;;;;33.00;20.13;;;7.10;99.90;;;;;;6281902;22;20045;-90
2022/03/29 01:51:45;;;;;;;35.33;20.90;;;7.00;99.90;;;;;;6256241;22;20022;-90
2022/03/29 01:54:11;;;;;;;36.27;21.57;;;7.00;99.90;;;;;;6256011;22;20366;-90
2022/03/29 01:56:37;;;;;;;31.37;20.13;;;7.00;99.90;;;;;;6255794;22;20076;-90
2022/03/29 01:59:08;;;;;;;35.92;20.50;;;6.90;99.90;;;;;;6256271;22;20045;-90
2022/03/29 02:01:45;;;;;;;33.60;21.13;;;7.00;99.90;;;;;;6255703;22;20092;-89
2022/03/29 02:04:11;;;;;;;34.88;20.88;;;7.00;99.90;;;;;;6281362;22;20012;-88
2022/03/29 02:06:36;;;;;;;31.47;20.60;;;6.90;99.90;;;;;;6255400;22;20095;-89
2022/03/29 02:09:06;;;;;;;35.83;21.00;;;6.90;99.90;;;;;;6255502;22;20051;-89
2022/03/29 02:11:38;;;;;;;33.28;20.40;;;6.90;99.90;;;;;;6255855;22;20080;-89
2022/03/29 02:14:04;;;;;;;34.25;20.85;;;6.90;99.90;;;;;;6255645;22;20015;-90
2022/03/29 02:16:29;;;;;;;31.53;20.73;;;6.90;99.90;;;;;;6255518;22;20019;-89
2022/03/29 02:18:55;;;;;;;34.93;21.77;;;6.90;99.90;;;;;;6255588;22;20014;-89
2022/03/29 02:21:21;;;;;;;34.43;20.47;;;6.90;99.90;;;;;;6255617;22;20015;-89
2022/03/29 02:23:47;;;;;;;34.67;20.97;;;6.80;99.90;;;;;;6255738;22;20064;-89
2022/03/29 02:26:13;;;;;;;35.05;21.88;;;6.80;99.90;;;;;;6255537;22;20016;-88
2022/03/29 02:28:38;;;;;;;36.07;22.40;;;6.80;99.90;;;;;;6280879;22;20388;-89
2022/03/29 02:31:04;;;;;;;34.17;21.67;;;6.80;99.90;;;;;;6255246;22;20046;-89
2022/03/29 02:33:30;;;;;;;35.67;23.03;;;6.80;99.90;;;;;;6255241;22;20034;-89
2022/03/29 02:35:56;;;;;;;36.63;22.07;;;6.80;99.90;;;;;;6255552;22;20241;-89
2022/03/29 02:38:21;;;;;;;32.03;20.80;;;6.80;99.90;;;;;;6280553;22;20444;-88
2022/03/29 02:40:48;;;;;;;35.93;20.93;;;6.80;99.90;;;;;;6255200;22;20349;-89
2022/03/29 02:43:14;;;;;;;32.30;19.95;;;6.80;99.90;;;;;;6255663;22;20494;-89
2022/03/29 02:45:40;;;;;;;33.67;20.60;;;6.80;99.90;;;;;;6255465;22;20008;-89
2022/03/29 02:48:06;;;;;;;32.63;22.45;;;6.80;99.90;;;;;;6255360;22;20019;-89
2022/03/29 02:50:32;;;;;;;34.87;21.50;;;6.80;99.90;;;;;;6255432;22;20026;-89
2022/03/29 02:53:01;;;;;;;33.70;20.97;;;6.80;99.90;;;;;;6255181;22;20015;-89
2022/03/29 02:55:29;;;;;;;33.15;21.33;;;6.80;99.90;;;;;;6255108;22;20444;-88
2022/03/29 02:57:56;;;;;;;37.47;21.75;;;6.80;99.90;;;;;;6254868;22;20060;-88
2022/03/29 03:00:23;;;;;;;37.70;21.95;;;6.80;99.90;;;;;;6280564;22;20065;-88
2022/03/29 03:02:54;;;;;;;36.58;22.17;;;6.80;99.90;;;;;;6255072;22;20332;-88
2022/03/29 03:05:20;;;;;;;32.75;20.25;;;6.90;99.90;;;;;;6254789;22;20491;-89
2022/03/29 03:07:47;;;;;;;34.38;20.23;;;6.80;99.90;;;;;;6279934;22;20019;-88
2022/03/29 03:10:14;;;;;;;33.58;21.35;;;6.90;99.90;;;;;;6255299;22;20046;-90
2022/03/29 03:12:41;;;;;;;;;;;6.90;99.90;;;;;;6255688;22;20015;-90
2022/03/29 03:15:09;;;;;;;29.90;20.45;;;6.90;99.90;;;;;;6255374;22;20320;-90
2022/03/29 03:17:35;;;;;;;37.53;21.63;;;6.90;99.90;;;;;;6255346;22;20015;-89
2022/03/29 03:20:01;;;;;;;37.25;22.08;;;6.90;99.90;;;;;;6255132;22;20452;-90
2022/03/29 03:22:27;;;;;;;38.55;21.95;;;6.90;99.90;;;;;;6255315;22;20022;-89
2022/03/29 03:24:53;;;;;;;38.60;22.10;;;6.90;99.90;;;;;;6280553;22;20479;-89
2022/03/29 03:27:19;;;;;;;36.73;22.67;;;6.90;99.90;;;;;;6254974;22;20234;-89
2022/03/29 03:29:45;;;;;;;35.63;21.90;;;6.90;99.90;;;;;;6280475;22;20518;-89
2022/03/29 03:32:11;;;;;;;36.70;21.88;;;7.00;99.90;;;;;;6255000;22;20054;-89
2022/03/29 03:34:38;;;;;;;35.83;21.85;;;7.00;99.90;;;;;;6254587;22;20448;-89
2022/03/29 03:37:04;;;;;;;36.15;22.35;;;7.00;99.90;;;;;;6255234;22;20038;-90
2022/03/29 03:39:32;;;;;;;34.35;22.23;;;7.00;99.90;;;;;;6255018;22;20432;-90
2022/03/29 03:41:58;;;;;;;34.38;22.25;;;7.00;99.90;;;;;;6254994;22;20020;-89
2022/03/29 03:44:24;;;;;;;39.03;21.90;;;7.00;99.90;;;;;;6280296;22;20393;-89
2022/03/29 03:46:50;;;;;;;36.17;22.17;;;7.00;99.90;;;;;;6254784;22;20051;-89
2022/03/29 03:49:15;;;;;;;34.20;22.37;;;7.00;99.90;;;;;;6255101;22;20066;-89
2022/03/29 03:51:41;;;;;;;35.30;22.73;;;7.00;99.90;;;;;;6255098;22;20019;-89
2022/03/29 03:54:07;;;;;;;38.00;23.53;;;6.90;99.90;;;;;;6254998;22;20022;-89
2022/03/29 03:56:33;;;;;;;37.37;22.57;;;7.00;99.90;;;;;;6280654;22;20019;-90
2022/03/29 03:58:58;;;;;;;32.87;21.90;;;7.00;99.90;;;;;;6255156;22;20253;-90
2022/03/29 04:01:24;;;;;;;41.13;24.37;;;7.00;99.90;;;;;;6255131;22;20018;-90
2022/03/29 04:03:50;;;;;;;36.77;23.67;;;7.00;99.90;;;;;;6255172;22;20025;-90
2022/03/29 04:06:15;;;;;;;37.63;23.43;;;6.90;99.90;;;;;;6255136;22;20011;-90
2022/03/29 04:08:41;;;;;;;39.73;24.40;;;7.00;99.90;;;;;;6255035;22;20033;-90
2022/03/29 04:11:07;;;;;;;44.03;22.87;;;7.00;99.90;;;;;;6255174;22;20011;-90
2022/03/29 04:13:34;;;;;;;43.50;23.92;;;7.00;99.90;;;;;;6254959;22;20072;-89
2022/03/29 04:16:01;;;;;;;;;;;7.00;99.90;;;;;;6255830;22;20090;-90
2022/03/29 04:18:27;;;;;;;42.95;24.10;;;7.00;99.90;;;;;;6254857;22;19914;-90
2022/03/29 04:20:53;;;;;;;41.03;24.23;;;7.00;99.90;;;;;;6256124;22;20012;-89
2022/03/29 04:23:19;;;;;;;42.38;23.92;;;7.00;99.90;;;;;;6256943;22;20480;-89
2022/03/29 04:25:45;;;;;;;35.90;22.35;;;7.00;99.90;;;;;;6256801;22;20015;-90
2022/03/29 04:28:11;;;;;;;37.37;23.40;;;7.00;99.90;;;;;;6256795;22;20348;-89
2022/03/29 04:30:37;;;;;;;36.67;23.92;;;7.00;99.90;;;;;;6256704;22;20069;-90
2022/03/29 04:33:03;;;;;;;34.70;24.00;;;7.00;99.90;;;;;;6282196;22;20018;-90
2022/03/29 04:35:29;;;;;;;44.33;24.20;;;6.90;99.90;;;;;;6256644;22;20015;-89
2022/03/29 04:37:55;;;;;;;38.57;24.10;;;7.00;99.90;;;;;;6256554;22;20452;-89
2022/03/29 04:40:21;;;;;;;38.67;23.77;;;7.00;99.90;;;;;;6256599;22;20046;-89
2022/03/29 04:42:49;;;;;;;37.08;23.98;;;6.90;99.90;;;;;;6255787;22;20015;-89
2022/03/29 04:45:17;;;;;;;40.50;24.60;;;6.90;99.90;;;;;;6256262;22;20053;-89
2022/03/29 04:47:44;;;;;;;39.33;24.80;;;7.00;99.90;;;;;;6256301;22;20019;-89
2022/03/29 04:50:19;;;;;;;47.28;26.77;;;7.00;99.90;;;;;;6255471;22;20065;-88
2022/03/29 04:52:46;;;;;;;44.47;25.30;;;6.90;99.90;;;;;;6280926;22;20015;-89
2022/03/29 04:55:12;;;;;;;45.28;26.25;;;7.00;99.90;;;;;;6256376;22;20555;-91
2022/03/29 04:57:41;;;;;;;41.67;26.13;;;7.00;99.90;;;;;;6256311;22;20015;-89
2022/03/29 05:00:11;;;;;;;44.75;26.50;;;7.00;99.90;;;;;;6282046;22;20344;-87
2022/03/29 05:02:36;;;;;;;48.00;27.38;;;7.00;99.90;;;;;;6231522;22;20345;-94
2022/03/29 05:05:43;;;;;;;46.20;28.07;;;7.00;99.90;;;;;;6256766;22;20023;-92
2022/03/29 05:08:35;;;;;;;48.63;27.70;;;7.00;99.90;;;;;;6253891;22;20464;-92
2022/03/29 05:11:01;;;;;;;43.72;25.77;;;7.00;99.90;;;;;;6256168;22;20080;-90
2022/03/29 05:13:28;;;;;;;45.87;27.57;;;7.00;99.90;;;;;;6256940;22;20012;-90
2022/03/29 05:15:54;;;;;;;44.00;27.33;;;7.00;99.90;;;;;;6256675;22;20072;-91
2022/03/29 05:18:19;;;;;;;42.93;26.57;;;7.00;99.90;;;;;;6257189;22;20019;-91
2022/03/29 05:21:04;;;;;;;42.30;27.73;;;6.90;99.90;;;;;;6282448;22;20463;-92
2022/03/29 05:23:29;;;;;;;43.63;27.27;;;7.00;99.90;;;;;;6257124;22;20086;-92
2022/03/29 05:25:55;;;;;;;46.77;27.30;;;6.90;99.90;;;;;;6257678;22;20007;-92
2022/03/29 05:28:36;;;;;;;42.90;25.80;;;6.90;99.90;;;;;;6256920;22;20094;-90
2022/03/29 05:31:02;;;;;;;45.22;26.95;;;7.00;99.90;;;;;;6255344;22;20022;-88
2022/03/29 05:33:28;;;;;;;48.47;28.30;;;7.00;99.90;;;;;;6255337;22;20023;-87
2022/03/29 05:38:29;;;;;;;44.83;27.27;;;7.00;99.90;;;;;;6279290;22;20020;-88
2022/03/29 05:40:54;;;;;;;48.97;28.87;;;7.00;99.90;;;;;;6279382;22;20019;-86
2022/03/29 05:51:16;;;;;;;48.47;28.90;;;7.00;99.90;;;;;;6276437;22;20026;-93
2022/03/29 05:53:42;;;;;;;48.70;29.03;;;7.00;99.90;;;;;;6251216;22;20059;-91
2022/03/29 05:56:10;;;;;;;49.70;28.43;;;7.00;99.90;;;;;;6247296;22;20313;-92
2022/03/29 05:58:54;;;;;;;48.33;28.40;;;7.00;99.90;;;;;;6248583;22;20514;-93
2022/03/29 06:01:20;;;;;;;47.67;29.27;;;7.00;99.90;;;;;;6250740;22;20441;-95
2022/03/29 06:03:46;;;;;;;49.27;29.53;;;7.00;99.90;;;;;;6248913;22;20023;-93
2022/03/29 06:06:13;;;;;;;45.73;28.43;;;7.00;99.90;;;;;;6248840;22;20018;-93
2022/03/29 06:08:39;;;;;;;49.53;29.85;;;7.00;99.90;;;;;;6249961;22;20069;-93
2022/03/29 06:11:54;;;;;;;50.07;30.43;;;7.00;99.90;;;;;;6224634;22;20012;-93
2022/03/29 06:14:23;;;;;;;47.53;29.33;;;7.10;99.90;;;;;;6241596;22;20019;-93
2022/03/29 06:16:48;;;;;;;51.28;29.40;;;7.00;99.90;;;;;;6250445;22;20022;-93
2022/03/29 06:19:14;;;;;;;43.43;28.40;;;7.10;99.90;;;;;;6250795;22;20067;-93
2022/03/29 06:22:04;;;;;;;45.37;28.17;;;7.10;99.90;;;;;;6250637;22;20012;-93
2022/03/29 06:24:31;;;;;;;46.28;28.60;;;7.10;99.90;;;;;;6251235;22;20077;-94
2022/03/29 06:26:58;;;;;;;49.55;27.92;;;7.00;99.90;;;;;;6250724;22;20081;-92
2022/03/29 06:29:24;;;;;;;46.55;27.98;;;7.10;99.90;;;;;;6250667;22;20018;-93
2022/03/29 06:31:51;;;;;;;43.63;26.77;;;7.10;99.90;;;;;;6250975;22;20055;-93
2022/03/29 06:34:16;;;;;;;;;;;7.10;99.90;;;;;;6251364;22;20098;-92
2022/03/29 06:36:42;;;;;;;47.50;27.70;;;7.20;99.90;;;;;;6250693;22;19919;-94
2022/03/29 06:39:10;;;;;;;47.20;28.27;;;7.10;99.90;;;;;;6250731;22;20020;-93
2022/03/29 06:41:36;;;;;;;50.08;28.08;;;7.10;99.90;;;;;;6225419;22;20126;-92
2022/03/29 06:44:02;;;;;;;40.58;27.05;;;7.20;99.90;;;;;;6250536;22;20012;-94
2022/03/29 06:46:28;;;;;;;45.42;27.05;;;7.20;99.90;;;;;;6225168;22;20103;-92
2022/03/29 06:48:56;;;;;;;43.73;25.73;;;7.20;99.90;;;;;;6250810;22;20016;-95
2022/03/29 06:51:23;;;;;;;45.55;26.33;;;7.20;99.90;;;;;;6250676;22;20107;-93
2022/03/29 06:53:49;;;;;;;42.30;25.65;;;7.20;99.90;;;;;;6225547;22;20098;-94
2022/03/29 06:56:16;;;;;;;46.47;26.93;;;7.20;99.90;;;;;;6250529;22;20022;-94
2022/03/29 06:58:42;;;;;;;43.60;24.85;;;7.20;99.90;;;;;;6250435;22;20345;-95
2022/03/29 07:01:08;;;;;;;44.07;25.83;;;7.30;99.90;;;;;;6250724;22;20441;-93
2022/03/29 07:04:02;;;;;;;;;;;;;;;;;;;;;
2022/03/29 07:07:27;;;;;;;45.72;26.40;;;7.30;99.90;;;;;;6275993;22;20023;-92
2022/03/29 07:12:49;;;;;;;45.08;25.55;;;7.30;99.90;;;;;;6277180;22;20027;-94
2022/03/29 07:15:16;;;;;;;44.63;24.73;;;7.30;99.90;;;;;;6250717;22;20019;-93
2022/03/29 07:17:42;;;;;;;;;;;7.30;99.90;;;;;;6251366;22;20012;-93
2022/03/29 07:20:08;;;;;;;44.05;24.38;;;7.30;99.90;;;;;;6250641;22;20321;-94
2022/03/29 07:22:35;;;;;;;46.92;24.73;;;7.40;99.90;;;;;;6250501;22;20023;-94
2022/03/29 07:25:01;;;;;;;40.83;24.83;;;7.40;99.90;;;;;;6225345;22;20464;-93
2022/03/29 07:27:27;;;;;;;41.17;25.50;;;7.40;99.90;;;;;;6250781;22;20015;-93
2022/03/29 07:29:53;;;;;;;41.50;24.53;;;7.50;99.90;;;;;;6250743;22;20016;-93
2022/03/29 07:32:21;;;;;;;40.55;24.17;;;7.50;99.90;;;;;;6250564;22;20012;-93
2022/03/29 07:34:49;;;;;;;44.30;24.23;;;7.60;99.90;;;;;;6250233;22;20016;-94
2022/03/29 07:37:15;;;;;;;43.78;25.50;;;7.60;99.90;;;;;;6250188;22;20015;-94
2022/03/29 07:39:41;;;;;;;41.97;24.07;;;7.60;99.90;;;;;;6250575;22;20448;-93
2022/03/29 07:42:07;;;;;;;39.13;23.38;;;7.60;99.90;;;;;;6250288;22;20012;-93
2022/03/29 07:44:36;;;;;;;43.07;24.20;;;7.70;99.90;;;;;;6250605;22;20108;-93
2022/03/29 07:47:07;;;;;;;46.45;24.65;;;7.60;99.90;;;;;;6224690;22;20239;-93
2022/03/29 07:49:36;;;;;;;44.80;23.55;;;7.60;99.90;;;;;;6250621;22;20080;-94
2022/03/29 07:52:04;;;;;;;35.13;19.95;;;7.70;99.90;;;;;;6273095;22;20079;-95
2022/03/29 07:54:29;;;;;;;36.78;18.00;;;7.70;99.90;;;;;;6251064;22;20012;-94
2022/03/29 07:56:58;;;;;;;34.28;17.10;;;7.70;99.90;;;;;;6253351;22;20445;-92
2022/03/29 07:59:24;;;;;;;34.53;17.17;;;7.70;99.90;;;;;;6252729;22;20016;-94
2022/03/29 08:01:53;;;;;;;32.03;17.57;;;7.80;99.90;;;;;;6252759;22;20019;-94
2022/03/29 08:04:19;;;;;;;32.90;16.88;;;7.80;99.90;;;;;;6253093;22;20028;-92
2022/03/29 08:06:45;;;;;;;36.43;18.37;;;7.80;99.90;;;;;;6253205;22;20094;-94
2022/03/29 08:09:18;;;;;;;35.43;16.90;;;7.80;99.90;;;;;;6253068;22;20012;-94
2022/03/29 08:11:46;;;;;;;35.10;16.48;;;7.80;99.90;;;;;;6252067;22;20016;-94
2022/03/29 08:14:14;;;;;;;35.65;16.20;;;7.80;99.90;;;;;;6253308;22;20023;-92
2022/03/29 08:16:45;;;;;;;27.83;14.80;;;7.80;99.90;;;;;;6254517;22;20338;-94
2022/03/29 08:19:14;;;;;;;29.92;15.30;;;7.90;99.90;;;;;;6253967;22;20016;-93
2022/03/29 08:21:49;;;;;;;32.85;13.32;;;7.90;99.90;;;;;;6261199;22;20016;-92
2022/03/29 08:24:16;;;;;;;;;;;7.90;99.90;;;;;;6255363;22;20023;-93
2022/03/29 08:26:42;;;;;;;31.83;13.27;;;7.80;99.90;;;;;;6232032;22;19941;-92
2022/03/29 08:29:12;;;;;;;26.93;12.60;;;7.90;99.90;;;;;;6258450;22;20024;-92
2022/03/29 08:31:39;;;;;;;30.52;12.88;;;7.90;99.90;;;;;;6252822;22;20456;-93
2022/03/29 08:34:06;;;;;;;27.02;12.90;;;7.90;99.90;;;;;;6226684;22;20069;-95
2022/03/29 08:36:32;;;;;;;28.00;13.50;;;7.90;99.90;;;;;;6226654;22;20456;-93
2022/03/29 08:38:58;;;;;;;32.47;12.87;;;7.90;99.90;;;;;;6251899;22;20045;-95
2022/03/29 08:41:27;;;;;;;29.17;11.43;;;8.00;99.90;;;;;;6226577;22;20027;-93
2022/03/29 08:43:54;;;;;;;29.08;10.38;;;8.00;99.90;;;;;;6252213;22;20047;-94
2022/03/29 08:46:21;;;;;;;28.63;10.40;;;8.00;99.90;;;;;;6251729;22;20024;-94
2022/03/29 08:48:49;;;;;;;27.48;11.57;;;8.00;99.90;;;;;;6251600;22;20016;-94
2022/03/29 08:51:16;;;;;;;30.77;11.75;;;8.00;99.90;;;;;;6226167;22;20020;-94
2022/03/29 08:53:45;;;;;;;30.63;11.30;;;8.00;99.90;;;;;;6251727;22;20360;-94
2022/03/29 08:56:11;;;;;;;29.38;12.02;;;8.10;99.90;;;;;;6226832;22;20015;-94
2022/03/29 08:58:36;;;;;;;31.20;10.83;;;8.10;99.90;;;;;;6251833;22;20019;-95
2022/03/29 09:01:02;;;;;;;29.23;10.83;;;8.20;99.90;;;;;;6251618;22;20341;-94
2022/03/29 09:03:38;;;;;;;31.93;10.80;;;8.20;99.90;;;;;;6251488;22;20027;-94
2022/03/29 09:06:07;;;;;;;26.70;10.48;;;8.20;99.90;;;;;;6251872;22;20020;-94
2022/03/29 09:08:47;;;;;;;22.35;9.40;;;8.20;99.90;;;;;;6251870;22;20008;-94
2022/03/29 09:11:21;;;;;;;23.27;10.07;;;8.20;99.90;;;;;;6252101;22;20559;-94
2022/03/29 09:14:03;;;;;;;22.92;9.27;;;8.20;99.90;;;;;;6252017;22;20024;-94
2022/03/29 09:16:31;;;;;;;21.58;8.65;;;8.30;99.90;;;;;;6251747;22;20059;-93
2022/03/29 09:18:58;;;;;;;22.45;9.02;;;8.30;99.90;;;;;;6277168;22;20468;-95
2022/03/29 09:21:25;;;;;;;27.35;9.45;;;8.30;99.90;;;;;;6251357;22;20445;-95
2022/03/29 09:24:23;;;;;;;28.67;9.95;;;8.40;99.90;;;;;;6251659;22;20441;-93
2022/03/29 09:26:54;;;;;;;25.90;9.18;;;8.40;99.90;;;;;;6186031;22;20034;-94
2022/03/29 09:29:34;;;;;;;24.75;9.45;;;8.40;99.90;;;;;;6226368;22;20022;-94
2022/03/29 09:32:14;;;;;;;28.48;9.63;;;8.40;99.90;;;;;;6252059;22;20077;-94
2022/03/29 09:34:40;;;;;;;26.00;9.00;;;8.50;99.90;;;;;;6251348;22;20077;-93
2022/03/29 09:37:06;;;;;;;24.57;8.47;;;8.70;99.90;;;;;;6251186;22;20016;-95
2022/03/29 09:39:39;;;;;;;20.07;7.57;;;8.70;99.90;;;;;;6251515;22;20051;-94
2022/03/29 09:42:14;;;;;;;26.08;8.40;;;8.80;99.90;;;;;;6251732;22;20291;-94
2022/03/29 09:44:42;;;;;;;20.58;7.43;;;8.90;99.90;;;;;;6251647;22;20020;-94
2022/03/29 09:47:10;;;;;;;18.30;6.25;;;9.00;99.90;;;;;;6251756;22;20047;-92
2022/03/29 09:49:52;;;;;;;30.30;7.72;;;9.00;99.90;;;;;;6251070;22;20091;-95
2022/03/29 09:52:23;;;;;;;23.13;8.25;;;9.20;99.90;;;;;;6225917;22;20019;-95
2022/03/29 09:55:13;;;;;;;20.05;8.77;;;9.20;99.90;;;;;;6251152;22;20151;-95
2022/03/29 09:57:43;;;;;;;21.83;7.72;;;9.30;99.90;;;;;;6251109;22;20015;-95
2022/03/29 10:00:35;;;;;;;25.77;8.27;;;9.30;99.90;;;;;;6251066;22;20023;-93
2022/03/29 10:03:03;;;;;;;24.58;8.05;;;9.30;99.90;;;;;;6250475;22;20012;-94
2022/03/29 10:05:30;;;;;;;23.63;8.23;;;9.20;99.90;;;;;;6250958;22;20012;-91
2022/03/29 10:10:46;;;;;;;23.23;7.88;;;9.20;99.90;;;;;;6277067;22;20031;-95
2022/03/29 10:13:13;;;;;;;23.38;7.78;;;9.10;99.90;;;;;;6225830;22;20020;-92
2022/03/29 10:15:41;;;;;;;21.02;6.90;;;9.10;99.90;;;;;;6251043;22;20023;-95
2022/03/29 10:18:14;;;;;;;18.48;7.30;;;9.10;99.90;;;;;;6250912;22;20011;-95
2022/03/29 10:20:41;;;;;;;19.85;7.55;;;9.10;99.90;;;;;;6251202;22;20357;-94
2022/03/29 10:23:07;;;;;;;18.42;6.75;;;9.10;99.90;;;;;;6251039;22;20051;-94
2022/03/29 10:30:55;;;;;;;20.55;7.13;;;9.00;99.90;;;;;;6309077;22;20345;-92
2022/03/29 10:33:25;;;;;;;18.85;7.15;;;9.00;99.90;;;;;;6256068;22;20523;-94
2022/03/29 10:36:11;;;;;;;20.35;7.07;;;9.10;99.90;;;;;;6256255;22;20094;-94
2022/03/29 10:38:58;;;;;;;20.27;7.07;;;9.10;99.90;;;;;;6255989;22;20050;-95
2022/03/29 10:44:17;;;;;;;22.25;7.57;;;9.10;99.90;;;;;;6291293;22;20027;-95
2022/03/29 12:11:51;;;;;;;25.70;9.60;;;9.20;99.90;;;;;;6282307;22;20059;-95
2022/03/29 12:14:24;;;;;;;27.02;10.55;;;9.20;99.90;;;;;;6252944;22;20023;-94
2022/03/29 13:47:24;;;;;;;23.27;9.68;;;10.30;99.90;;;;;;6278976;22;20028;-96
2022/03/29 13:49:53;;;;;;;22.80;9.23;;;10.30;99.90;;;;;;6253798;22;20019;-95
2022/03/29 13:52:21;;;;;;;24.80;9.27;;;10.20;99.90;;;;;;6227588;22;20051;-94
2022/03/29 13:54:47;;;;;;;25.77;10.50;;;10.10;99.90;;;;;;6227710;22;20016;-96
2022/03/29 13:57:15;;;;;;;27.03;9.10;;;10.00;99.90;;;;;;6227787;22;20023;-95
2022/03/29 14:00:21;;;;;;;23.38;9.70;;;9.90;99.90;;;;;;6227691;22;20107;-92
2022/03/29 14:02:57;;;;;;;;;;;9.80;99.90;;;;;;6217283;22;20016;-96
2022/03/29 14:10:57;;;;;;;24.27;10.35;;;9.80;99.90;;;;;;6225894;22;20053;-91
2022/03/29 15:27:31;;;;;;;22.42;9.50;;;9.40;99.90;;;;;;6319411;22;20019;-96
2022/03/29 15:29:58;;;;;;;24.13;10.20;;;9.30;99.90;;;;;;6236548;22;20075;-92
2022/03/29 15:32:25;;;;;;;25.70;9.90;;;9.30;99.90;;;;;;6296412;22;20019;-94
2022/03/29 15:51:03;;;;;;;20.33;8.38;;;9.30;99.90;;;;;;6283377;22;20016;-96
2022/03/29 15:53:47;;;;;;;23.38;9.85;;;9.20;99.90;;;;;;6255924;22;20413;-96
2022/03/29 15:56:13;;;;;;;26.17;9.75;;;9.20;99.90;;;;;;6258290;22;20039;-93
2022/03/29 16:02:18;;;;;;;23.35;9.07;;;9.10;99.90;;;;;;6217755;23;20020;-96
2022/03/29 16:04:54;;;;;;;23.92;10.38;;;9.10;99.90;;;;;;6233974;23;20020;-93
2022/03/29 16:07:32;;;;;;;21.33;8.73;;;9.10;99.90;;;;;;6190080;23;20022;-95
2022/03/29 16:10:04;;;;;;;20.60;9.02;;;9.00;99.90;;;;;;6261135;23;20020;-96
2022/03/29 16:13:23;;;;;;;22.10;8.55;;;8.90;99.90;;;;;;6189781;23;20028;-93
2022/03/29 16:54:49;;;;;;;21.05;9.30;;;8.40;99.90;;;;;;6271703;22;20043;-90
2022/03/29 16:58:03;;;;;;;22.35;9.05;;;8.40;99.90;;;;;;6305243;22;20003;-90
2022/03/29 17:01:10;;;;;;;23.10;9.57;;;8.40;99.90;;;;;;6253582;22;20019;-90
2022/03/29 17:45:58;;;;;;;26.08;10.55;;;7.90;99.90;;;;;;6279031;22;20059;-91
2022/03/29 17:48:49;;;;;;;22.42;10.57;;;7.80;99.90;;;;;;6233724;22;20051;-94
2022/03/29 17:51:15;;;;;;;22.33;10.18;;;7.80;99.90;;;;;;6228307;22;20020;-96
2022/03/29 17:53:41;;;;;;;21.20;10.80;;;7.70;99.90;;;;;;6227345;22;20353;-95
2022/03/29 17:56:08;;;;;;;21.40;10.48;;;7.80;99.90;;;;;;6226188;22;20019;-95
2022/03/29 17:58:34;;;;;;;;;;;7.70;99.90;;;;;;6226487;22;20023;-96
2022/03/29 18:12:07;;;;;;;18.92;9.55;;;7.50;99.90;;;;;;6249447;22;20107;-96
2022/03/29 18:14:33;;;;;;;21.20;8.80;;;7.40;99.90;;;;;;6236391;22;20016;-96
2022/03/29 18:17:23;;;;;;;22.87;9.23;;;7.40;99.90;;;;;;6240761;22;20019;-90
2022/03/29 18:19:53;;;;;;;24.83;9.65;;;7.40;99.90;;;;;;6267497;22;20384;-96
2022/03/29 18:22:18;;;;;;;21.23;9.63;;;7.30;99.90;;;;;;6271584;22;19999;-96
2022/03/29 18:24:44;;;;;;;25.20;9.13;;;7.30;99.90;;;;;;6240344;22;20027;-93
2022/03/29 18:27:33;;;;;;;23.63;10.47;;;7.20;99.90;;;;;;6262350;22;20069;-94
2022/03/29 18:32:34;;;;;;;32.60;10.25;;;7.10;99.90;;;;;;6287506;22;20030;-95
2022/03/29 18:35:00;;;;;;;28.33;10.60;;;7.00;99.90;;;;;;6266187;22;20039;-95
2022/03/29 18:37:55;;;;;;;24.67;10.70;;;7.00;99.90;;;;;;6246267;22;20043;-95
2022/03/29 18:40:41;;;;;;;21.25;9.77;;;7.00;99.90;;;;;;6298515;22;20015;-95
2022/03/29 18:43:08;;;;;;;21.80;9.23;;;6.90;99.90;;;;;;6243291;22;20023;-96
2022/03/29 18:45:56;;;;;;;24.13;11.55;;;6.90;99.90;;;;;;6271563;22;20069;-92
2022/03/29 18:51:18;;;;;;;23.00;11.63;;;6.80;99.90;;;;;;6298452;22;20019;-89
2022/03/29 18:53:50;;;;;;;23.88;11.85;;;6.80;99.90;;;;;;6248757;22;20024;-89
2022/03/29 18:56:42;;;;;;;24.55;12.00;;;6.80;99.90;;;;;;6271199;22;20020;-88
2022/03/29 18:59:10;;;;;;;25.50;13.93;;;6.80;99.90;;;;;;6242604;22;20011;-90
2022/03/29 19:01:39;;;;;;;24.73;11.82;;;6.80;99.90;;;;;;6258377;22;20449;-94
2022/03/29 19:04:44;;;;;;;25.67;11.27;;;6.80;99.90;;;;;;6261235;22;20026;-94
2022/03/29 19:08:10;;;;;;;28.88;11.40;;;6.70;99.90;;;;;;6303436;22;20153;-90
2022/03/29 19:10:48;;;;;;;24.38;10.60;;;6.60;99.90;;;;;;6215976;22;20016;-89
2022/03/29 19:16:01;;;;;;;21.67;10.93;;;6.50;99.90;;;;;;6269263;22;20023;-89
2022/03/29 19:19:04;;;;;;;23.60;10.97;;;6.50;99.90;;;;;;6224928;22;20035;-89
2022/03/29 19:21:30;;;;;;;22.08;10.90;;;6.50;99.90;;;;;;6242596;22;20035;-94
2022/03/29 19:23:56;;;;;;;22.03;11.27;;;6.50;99.90;;;;;;6231372;22;20011;-95
2022/03/29 19:26:25;;;;;;;20.95;11.27;;;6.50;99.90;;;;;;6227614;22;20490;-95
2022/03/29 19:28:53;;;;;;;26.25;11.98;;;6.40;99.90;;;;;;6229215;22;20016;-93
2022/03/29 19:31:20;;;;;;;24.73;12.02;;;6.50;99.90;;;;;;6227888;22;20153;-96
2022/03/29 19:33:48;;;;;;;23.42;11.52;;;6.50;99.90;;;;;;6227280;22;20081;-95
2022/03/29 19:36:14;;;;;;;28.00;12.90;;;6.50;99.90;;;;;;6228627;22;20388;-96
2022/03/29 19:39:39;;;;;;;29.00;11.73;;;6.60;99.90;;;;;;6228532;22;20044;-96
2022/03/29 19:42:22;;;;;;;25.58;13.02;;;6.60;99.90;;;;;;6251579;22;20151;-95
2022/03/29 19:44:54;;;;;;;20.83;10.80;;;6.60;99.90;;;;;;6250328;22;20113;-96
2022/03/29 19:47:30;;;;;;;23.25;11.18;;;6.60;99.90;;;;;;6225262;22;20090;-96